sensor_id;sensor_type;location;lat;lon;timestamp;P1;durP1;ratioP1;P2;durP2;ratioP2
69034;SDS011;56091;55.756;37.412;2023-02-18T00:01:09;24.50;;;9.95;;
69034;SDS011;56091;55.756;37.412;2023-02-18T00:06:19;30.87;;;10.17;;
69034;SDS011;56091;55.756;37.412;2023-02-18T00:11:23;29.65;;;10.80;;
69034;SDS011;56091;55.756;37.412;2023-02-18T00:16:24;30.50;;;10.23;;
69034;SDS011;56091;55.756;37.412;2023-02-18T00:21:28;30.13;;;9.93;;
69034;SDS011;56091;55.756;37.412;2023-02-18T00:26:29;22.30;;;9.47;;
69034;SDS011;56091;55.756;37.412;2023-02-18T00:31:31;28.00;;;10.93;;
69034;SDS011;56091;55.756;37.412;2023-02-18T00:36:34;27.10;;;9.47;;
69034;SDS011;56091;55.756;37.412;2023-02-18T00:41:36;24.25;;;8.85;;
69034;SDS011;56091;55.756;37.412;2023-02-18T00:46:37;31.07;;;10.90;;
69034;SDS011;56091;55.756;37.412;2023-02-18T00:51:40;32.03;;;10.38;;
69034;SDS011;56091;55.756;37.412;2023-02-18T00:56:41;24.83;;;9.60;;
69034;SDS011;56091;55.756;37.412;2023-02-18T01:01:42;25.30;;;9.68;;
69034;SDS011;56091;55.756;37.412;2023-02-18T01:06:43;29.67;;;10.13;;
69034;SDS011;56091;55.756;37.412;2023-02-18T01:11:44;27.80;;;10.13;;
69034;SDS011;56091;55.756;37.412;2023-02-18T01:16:47;26.70;;;9.83;;
69034;SDS011;56091;55.756;37.412;2023-02-18T01:21:48;26.73;;;10.18;;
69034;SDS011;56091;55.756;37.412;2023-02-18T01:26:49;26.85;;;10.30;;
69034;SDS011;56091;55.756;37.412;2023-02-18T01:31:50;29.30;;;9.77;;
69034;SDS011;56091;55.756;37.412;2023-02-18T01:36:53;27.23;;;9.55;;
69034;SDS011;56091;55.756;37.412;2023-02-18T01:41:55;31.07;;;9.60;;
69034;SDS011;56091;55.756;37.412;2023-02-18T01:46:56;27.75;;;10.38;;
69034;SDS011;56091;55.756;37.412;2023-02-18T01:51:58;27.30;;;9.50;;
69034;SDS011;56091;55.756;37.412;2023-02-18T01:57:11;24.08;;;9.07;;
69034;SDS011;56091;55.756;37.412;2023-02-18T02:02:19;25.30;;;9.60;;
69034;SDS011;56091;55.756;37.412;2023-02-18T02:07:23;25.67;;;10.15;;
69034;SDS011;56091;55.756;37.412;2023-02-18T02:39:07;35.42;;;11.52;;
69034;SDS011;56091;55.756;37.412;2023-02-18T02:44:12;29.37;;;10.87;;
69034;SDS011;56091;55.756;37.412;2023-02-18T02:54:42;27.37;;;9.60;;
69034;SDS011;56091;55.756;37.412;2023-02-18T02:59:48;23.83;;;8.45;;
69034;SDS011;56091;55.756;37.412;2023-02-18T03:04:53;28.00;;;9.30;;
69034;SDS011;56091;55.756;37.412;2023-02-18T03:15:27;23.77;;;8.97;;
69034;SDS011;56091;55.756;37.412;2023-02-18T03:20:45;26.45;;;9.35;;
69034;SDS011;56091;55.756;37.412;2023-02-18T03:25:49;30.67;;;10.13;;
69034;SDS011;56091;55.756;37.412;2023-02-18T03:30:52;24.98;;;8.93;;
69034;SDS011;56091;55.756;37.412;2023-02-18T03:35:59;28.20;;;8.77;;
69034;SDS011;56091;55.756;37.412;2023-02-18T03:41:01;28.92;;;9.30;;
69034;SDS011;56091;55.756;37.412;2023-02-18T03:46:02;24.87;;;9.33;;
69034;SDS011;56091;55.756;37.412;2023-02-18T03:51:03;24.60;;;9.70;;
69034;SDS011;56091;55.756;37.412;2023-02-18T03:56:04;23.33;;;9.27;;
69034;SDS011;56091;55.756;37.412;2023-02-18T04:01:05;23.10;;;8.95;;
69034;SDS011;56091;55.756;37.412;2023-02-18T04:06:06;26.47;;;9.23;;
69034;SDS011;56091;55.756;37.412;2023-02-18T04:11:10;24.45;;;9.27;;
69034;SDS011;56091;55.756;37.412;2023-02-18T04:16:10;33.73;;;10.90;;
69034;SDS011;56091;55.756;37.412;2023-02-18T04:21:11;39.07;;;12.20;;
69034;SDS011;56091;55.756;37.412;2023-02-18T04:26:12;36.85;;;12.35;;
69034;SDS011;56091;55.756;37.412;2023-02-18T04:31:13;40.70;;;13.77;;
69034;SDS011;56091;55.756;37.412;2023-02-18T04:36:14;34.07;;;12.60;;
69034;SDS011;56091;55.756;37.412;2023-02-18T04:41:15;42.78;;;13.65;;
69034;SDS011;56091;55.756;37.412;2023-02-18T04:46:19;35.17;;;12.10;;
69034;SDS011;56091;55.756;37.412;2023-02-18T04:51:23;36.22;;;13.43;;
69034;SDS011;56091;55.756;37.412;2023-02-18T04:56:24;43.93;;;14.20;;
69034;SDS011;56091;55.756;37.412;2023-02-18T05:01:25;35.28;;;12.32;;
69034;SDS011;56091;55.756;37.412;2023-02-18T05:06:28;39.43;;;12.87;;
69034;SDS011;56091;55.756;37.412;2023-02-18T05:11:29;37.75;;;13.40;;
69034;SDS011;56091;55.756;37.412;2023-02-18T05:16:30;40.40;;;13.57;;
69034;SDS011;56091;55.756;37.412;2023-02-18T05:21:31;36.00;;;13.33;;
69034;SDS011;56091;55.756;37.412;2023-02-18T05:26:32;37.55;;;13.63;;
69034;SDS011;56091;55.756;37.412;2023-02-18T05:31:35;38.93;;;13.10;;
69034;SDS011;56091;55.756;37.412;2023-02-18T05:36:37;30.42;;;11.98;;
69034;SDS011;56091;55.756;37.412;2023-02-18T05:41:38;26.53;;;10.33;;
69034;SDS011;56091;55.756;37.412;2023-02-18T05:46:39;33.55;;;13.65;;
69034;SDS011;56091;55.756;37.412;2023-02-18T05:51:39;33.83;;;11.60;;
69034;SDS011;56091;55.756;37.412;2023-02-18T05:56:40;35.37;;;11.87;;
69034;SDS011;56091;55.756;37.412;2023-02-18T06:01:41;30.27;;;11.63;;
69034;SDS011;56091;55.756;37.412;2023-02-18T06:06:42;31.43;;;10.97;;
69034;SDS011;56091;55.756;37.412;2023-02-18T06:11:43;31.33;;;11.00;;
69034;SDS011;56091;55.756;37.412;2023-02-18T06:16:44;27.23;;;10.40;;
69034;SDS011;56091;55.756;37.412;2023-02-18T06:21:45;32.03;;;10.67;;
69034;SDS011;56091;55.756;37.412;2023-02-18T06:26:48;31.35;;;11.05;;
69034;SDS011;56091;55.756;37.412;2023-02-18T06:31:49;21.20;;;9.07;;
69034;SDS011;56091;55.756;37.412;2023-02-18T06:36:50;31.17;;;11.88;;
69034;SDS011;56091;55.756;37.412;2023-02-18T06:41:50;30.53;;;11.00;;
69034;SDS011;56091;55.756;37.412;2023-02-18T06:46:52;34.23;;;11.87;;
69034;SDS011;56091;55.756;37.412;2023-02-18T06:51:53;30.50;;;11.43;;
69034;SDS011;56091;55.756;37.412;2023-02-18T06:56:54;39.57;;;13.60;;
69034;SDS011;56091;55.756;37.412;2023-02-18T07:01:55;30.73;;;11.07;;
69034;SDS011;56091;55.756;37.412;2023-02-18T07:06:59;30.08;;;11.70;;
69034;SDS011;56091;55.756;37.412;2023-02-18T07:11:59;32.50;;;11.20;;
69034;SDS011;56091;55.756;37.412;2023-02-18T07:17:05;30.73;;;11.77;;
69034;SDS011;56091;55.756;37.412;2023-02-18T07:22:06;32.83;;;10.43;;
69034;SDS011;56091;55.756;37.412;2023-02-18T07:27:07;31.17;;;11.25;;
69034;SDS011;56091;55.756;37.412;2023-02-18T07:32:08;29.98;;;10.07;;
69034;SDS011;56091;55.756;37.412;2023-02-18T07:37:11;27.77;;;9.70;;
69034;SDS011;56091;55.756;37.412;2023-02-18T07:42:13;23.70;;;9.57;;
69034;SDS011;56091;55.756;37.412;2023-02-18T07:47:15;19.23;;;7.93;;
69034;SDS011;56091;55.756;37.412;2023-02-18T07:52:18;18.27;;;7.05;;
69034;SDS011;56091;55.756;37.412;2023-02-18T07:57:21;19.90;;;7.93;;
69034;SDS011;56091;55.756;37.412;2023-02-18T08:02:22;15.75;;;6.32;;
69034;SDS011;56091;55.756;37.412;2023-02-18T08:07:24;17.30;;;7.70;;
69034;SDS011;56091;55.756;37.412;2023-02-18T08:12:25;18.00;;;6.50;;
69034;SDS011;56091;55.756;37.412;2023-02-18T08:17:26;16.87;;;6.97;;
69034;SDS011;56091;55.756;37.412;2023-02-18T08:22:27;20.35;;;8.07;;
69034;SDS011;56091;55.756;37.412;2023-02-18T08:27:34;19.00;;;7.57;;
69034;SDS011;56091;55.756;37.412;2023-02-18T08:32:35;19.30;;;7.78;;
69034;SDS011;56091;55.756;37.412;2023-02-18T08:37:35;18.20;;;6.67;;
69034;SDS011;56091;55.756;37.412;2023-02-18T08:42:36;19.77;;;6.93;;
69034;SDS011;56091;55.756;37.412;2023-02-18T08:47:37;17.58;;;7.38;;
69034;SDS011;56091;55.756;37.412;2023-02-18T08:52:38;17.37;;;6.33;;
69034;SDS011;56091;55.756;37.412;2023-02-18T08:57:39;18.13;;;7.63;;
69034;SDS011;56091;55.756;37.412;2023-02-18T09:02:40;17.67;;;7.00;;
69034;SDS011;56091;55.756;37.412;2023-02-18T09:07:41;17.70;;;7.10;;
69034;SDS011;56091;55.756;37.412;2023-02-18T09:12:42;16.63;;;6.37;;
69034;SDS011;56091;55.756;37.412;2023-02-18T09:17:43;12.77;;;6.30;;
69034;SDS011;56091;55.756;37.412;2023-02-18T09:22:47;18.35;;;7.78;;
69034;SDS011;56091;55.756;37.412;2023-02-18T09:27:50;15.43;;;6.90;;
69034;SDS011;56091;55.756;37.412;2023-02-18T09:32:51;19.10;;;7.15;;
69034;SDS011;56091;55.756;37.412;2023-02-18T09:37:52;16.73;;;6.93;;
69034;SDS011;56091;55.756;37.412;2023-02-18T09:42:53;18.90;;;7.65;;
69034;SDS011;56091;55.756;37.412;2023-02-18T09:47:57;18.13;;;6.80;;
69034;SDS011;56091;55.756;37.412;2023-02-18T09:53:01;14.95;;;6.07;;
69034;SDS011;56091;55.756;37.412;2023-02-18T09:58:07;15.63;;;6.77;;
69034;SDS011;56091;55.756;37.412;2023-02-18T10:03:18;13.95;;;5.88;;
69034;SDS011;56091;55.756;37.412;2023-02-18T10:08:24;18.77;;;7.00;;
69034;SDS011;56091;55.756;37.412;2023-02-18T10:13:30;20.48;;;7.22;;
69034;SDS011;56091;55.756;37.412;2023-02-18T10:18:37;19.27;;;6.63;;
69034;SDS011;56091;55.756;37.412;2023-02-18T10:23:43;14.57;;;6.32;;
69034;SDS011;56091;55.756;37.412;2023-02-18T10:28:53;21.10;;;6.90;;
69034;SDS011;56091;55.756;37.412;2023-02-18T10:45:02;16.52;;;6.80;;
69034;SDS011;56091;55.756;37.412;2023-02-18T10:55:33;19.23;;;7.32;;
69034;SDS011;56091;55.756;37.412;2023-02-18T11:00:41;20.17;;;6.97;;
69034;SDS011;56091;55.756;37.412;2023-02-18T11:05:44;19.27;;;8.15;;
69034;SDS011;56091;55.756;37.412;2023-02-18T11:10:47;15.37;;;6.97;;
69034;SDS011;56091;55.756;37.412;2023-02-18T11:15:53;15.35;;;6.40;;
69034;SDS011;56091;55.756;37.412;2023-02-18T11:21:03;21.33;;;7.80;;
69034;SDS011;56091;55.756;37.412;2023-02-18T11:26:08;18.55;;;7.55;;
69034;SDS011;56091;55.756;37.412;2023-02-18T11:31:21;20.47;;;8.33;;
69034;SDS011;56091;55.756;37.412;2023-02-18T11:36:34;18.15;;;7.30;;
69034;SDS011;56091;55.756;37.412;2023-02-18T11:41:36;19.43;;;7.50;;
69034;SDS011;56091;55.756;37.412;2023-02-18T11:46:40;18.55;;;8.20;;
69034;SDS011;56091;55.756;37.412;2023-02-18T11:52:27;15.13;;;6.77;;
69034;SDS011;56091;55.756;37.412;2023-02-18T11:57:33;19.08;;;7.65;;
69034;SDS011;56091;55.756;37.412;2023-02-18T12:02:37;21.20;;;8.43;;
69034;SDS011;56091;55.756;37.412;2023-02-18T12:07:46;16.85;;;6.82;;
69034;SDS011;56091;55.756;37.412;2023-02-18T12:13:18;18.87;;;7.53;;
69034;SDS011;56091;55.756;37.412;2023-02-18T12:18:27;17.38;;;7.45;;
69034;SDS011;56091;55.756;37.412;2023-02-18T12:34:15;18.47;;;7.30;;
69034;SDS011;56091;55.756;37.412;2023-02-18T12:45:28;17.33;;;7.50;;
69034;SDS011;56091;55.756;37.412;2023-02-18T13:01:59;17.08;;;6.47;;
69034;SDS011;56091;55.756;37.412;2023-02-18T13:17:43;15.63;;;6.40;;
69034;SDS011;56091;55.756;37.412;2023-02-18T13:22:45;13.77;;;5.03;;
69034;SDS011;56091;55.756;37.412;2023-02-18T13:33:20;15.80;;;6.30;;
69034;SDS011;56091;55.756;37.412;2023-02-18T13:44:00;13.95;;;5.88;;
69034;SDS011;56091;55.756;37.412;2023-02-18T13:49:09;16.37;;;6.13;;
69034;SDS011;56091;55.756;37.412;2023-02-18T13:59:18;11.73;;;4.93;;
69034;SDS011;56091;55.756;37.412;2023-02-18T14:04:34;18.27;;;6.05;;
69034;SDS011;56091;55.756;37.412;2023-02-18T14:09:36;12.80;;;5.73;;
69034;SDS011;56091;55.756;37.412;2023-02-18T14:14:41;15.43;;;5.85;;
69034;SDS011;56091;55.756;37.412;2023-02-18T14:19:42;13.00;;;5.20;;
69034;SDS011;56091;55.756;37.412;2023-02-18T14:24:59;14.10;;;5.35;;
69034;SDS011;56091;55.756;37.412;2023-02-18T14:30:18;15.67;;;6.03;;
69034;SDS011;56091;55.756;37.412;2023-02-18T14:51:24;15.47;;;5.80;;
69034;SDS011;56091;55.756;37.412;2023-02-18T14:56:29;14.00;;;5.55;;
69034;SDS011;56091;55.756;37.412;2023-02-18T15:01:31;16.63;;;5.83;;
69034;SDS011;56091;55.756;37.412;2023-02-18T15:06:37;16.75;;;5.88;;
69034;SDS011;56091;55.756;37.412;2023-02-18T15:11:44;14.17;;;5.60;;
69034;SDS011;56091;55.756;37.412;2023-02-18T15:16:55;15.60;;;5.97;;
69034;SDS011;56091;55.756;37.412;2023-02-18T15:21:58;15.00;;;5.87;;
69034;SDS011;56091;55.756;37.412;2023-02-18T15:27:03;13.40;;;5.30;;
69034;SDS011;56091;55.756;37.412;2023-02-18T15:32:20;15.07;;;5.37;;
69034;SDS011;56091;55.756;37.412;2023-02-18T15:37:24;16.10;;;6.00;;
69034;SDS011;56091;55.756;37.412;2023-02-18T15:42:47;12.57;;;5.20;;
69034;SDS011;56091;55.756;37.412;2023-02-18T15:47:52;12.50;;;4.75;;
69034;SDS011;56091;55.756;37.412;2023-02-18T15:52:56;16.00;;;5.50;;
69034;SDS011;56091;55.756;37.412;2023-02-18T15:58:16;15.02;;;6.07;;
69034;SDS011;56091;55.756;37.412;2023-02-18T16:03:22;13.90;;;5.37;;
69034;SDS011;56091;55.756;37.412;2023-02-18T16:08:26;12.88;;;4.75;;
69034;SDS011;56091;55.756;37.412;2023-02-18T16:13:27;14.40;;;4.97;;
69034;SDS011;56091;55.756;37.412;2023-02-18T16:23:41;7.73;;;3.13;;
69034;SDS011;56091;55.756;37.412;2023-02-18T16:29:01;15.95;;;5.30;;
69034;SDS011;56091;55.756;37.412;2023-02-18T16:34:23;12.50;;;4.63;;
69034;SDS011;56091;55.756;37.412;2023-02-18T16:39:26;11.52;;;4.93;;
69034;SDS011;56091;55.756;37.412;2023-02-18T16:44:30;11.67;;;4.60;;
69034;SDS011;56091;55.756;37.412;2023-02-18T16:49:33;14.70;;;5.45;;
69034;SDS011;56091;55.756;37.412;2023-02-18T16:54:36;15.40;;;5.67;;
69034;SDS011;56091;55.756;37.412;2023-02-18T16:59:37;13.63;;;5.53;;
69034;SDS011;56091;55.756;37.412;2023-02-18T17:04:38;14.10;;;5.33;;
69034;SDS011;56091;55.756;37.412;2023-02-18T17:09:39;12.60;;;5.03;;
69034;SDS011;56091;55.756;37.412;2023-02-18T17:14:40;14.57;;;4.83;;
69034;SDS011;56091;55.756;37.412;2023-02-18T17:19:44;13.65;;;5.55;;
69034;SDS011;56091;55.756;37.412;2023-02-18T17:24:44;13.90;;;5.17;;
69034;SDS011;56091;55.756;37.412;2023-02-18T17:29:45;14.97;;;5.00;;
69034;SDS011;56091;55.756;37.412;2023-02-18T17:34:46;13.85;;;4.75;;
69034;SDS011;56091;55.756;37.412;2023-02-18T17:39:47;15.80;;;5.23;;
69034;SDS011;56091;55.756;37.412;2023-02-18T17:44:48;10.75;;;4.15;;
69034;SDS011;56091;55.756;37.412;2023-02-18T17:49:49;13.83;;;4.80;;
69034;SDS011;56091;55.756;37.412;2023-02-18T17:54:49;16.80;;;5.50;;
69034;SDS011;56091;55.756;37.412;2023-02-18T17:59:50;15.23;;;5.10;;
69034;SDS011;56091;55.756;37.412;2023-02-18T18:04:51;13.10;;;5.40;;
69034;SDS011;56091;55.756;37.412;2023-02-18T18:09:52;11.30;;;5.03;;
69034;SDS011;56091;55.756;37.412;2023-02-18T18:14:52;11.05;;;4.88;;
69034;SDS011;56091;55.756;37.412;2023-02-18T18:19:56;11.70;;;4.63;;
69034;SDS011;56091;55.756;37.412;2023-02-18T18:24:56;13.10;;;5.10;;
69034;SDS011;56091;55.756;37.412;2023-02-18T18:29:58;11.23;;;4.97;;
69034;SDS011;56091;55.756;37.412;2023-02-18T18:34:59;16.13;;;4.93;;
69034;SDS011;56091;55.756;37.412;2023-02-18T18:40:00;10.73;;;5.03;;
69034;SDS011;56091;55.756;37.412;2023-02-18T18:45:01;10.17;;;3.43;;
69034;SDS011;56091;55.756;37.412;2023-02-18T18:50:04;10.55;;;4.82;;
69034;SDS011;56091;55.756;37.412;2023-02-18T18:55:38;13.33;;;5.20;;
69034;SDS011;56091;55.756;37.412;2023-02-18T19:00:34;13.90;;;4.90;;
69034;SDS011;56091;55.756;37.412;2023-02-18T19:05:39;13.43;;;5.03;;
69034;SDS011;56091;55.756;37.412;2023-02-18T19:10:42;14.45;;;5.63;;
69034;SDS011;56091;55.756;37.412;2023-02-18T19:15:45;13.57;;;5.00;;
69034;SDS011;56091;55.756;37.412;2023-02-18T19:20:46;16.15;;;6.10;;
69034;SDS011;56091;55.756;37.412;2023-02-18T19:25:47;13.83;;;5.87;;
69034;SDS011;56091;55.756;37.412;2023-02-18T19:30:48;15.05;;;5.80;;
69034;SDS011;56091;55.756;37.412;2023-02-18T19:35:49;14.57;;;5.63;;
69034;SDS011;56091;55.756;37.412;2023-02-18T19:40:50;15.10;;;5.70;;
69034;SDS011;56091;55.756;37.412;2023-02-18T19:45:53;13.25;;;4.95;;
69034;SDS011;56091;55.756;37.412;2023-02-18T19:50:53;14.07;;;5.00;;
69034;SDS011;56091;55.756;37.412;2023-02-18T19:55:57;15.82;;;5.78;;
69034;SDS011;56091;55.756;37.412;2023-02-18T20:00:59;15.37;;;5.53;;
69034;SDS011;56091;55.756;37.412;2023-02-18T20:06:03;14.75;;;5.50;;
69034;SDS011;56091;55.756;37.412;2023-02-18T20:11:04;13.17;;;5.30;;
69034;SDS011;56091;55.756;37.412;2023-02-18T20:16:06;12.43;;;4.60;;
69034;SDS011;56091;55.756;37.412;2023-02-18T20:21:10;14.35;;;5.78;;
69034;SDS011;56091;55.756;37.412;2023-02-18T20:26:11;14.48;;;5.47;;
69034;SDS011;56091;55.756;37.412;2023-02-18T20:31:14;14.77;;;5.07;;
69034;SDS011;56091;55.756;37.412;2023-02-18T20:36:15;15.82;;;5.53;;
69034;SDS011;56091;55.756;37.412;2023-02-18T20:41:16;15.95;;;4.95;;
69034;SDS011;56091;55.756;37.412;2023-02-18T20:46:19;17.73;;;6.30;;
69034;SDS011;56091;55.756;37.412;2023-02-18T20:51:24;25.58;;;5.70;;
69034;SDS011;56091;55.756;37.412;2023-02-18T20:56:24;19.77;;;6.60;;
69034;SDS011;56091;55.756;37.412;2023-02-18T21:01:25;16.92;;;5.90;;
69034;SDS011;56091;55.756;37.412;2023-02-18T21:06:26;18.50;;;6.47;;
69034;SDS011;56091;55.756;37.412;2023-02-18T21:11:27;17.10;;;5.90;;
69034;SDS011;56091;55.756;37.412;2023-02-18T21:16:29;18.07;;;6.33;;
69034;SDS011;56091;55.756;37.412;2023-02-18T21:21:31;16.73;;;6.28;;
69034;SDS011;56091;55.756;37.412;2023-02-18T21:26:32;15.20;;;6.27;;
69034;SDS011;56091;55.756;37.412;2023-02-18T21:36:38;15.97;;;6.27;;
69034;SDS011;56091;55.756;37.412;2023-02-18T21:41:40;17.27;;;6.30;;
69034;SDS011;56091;55.756;37.412;2023-02-18T21:46:41;16.67;;;6.43;;
69034;SDS011;56091;55.756;37.412;2023-02-18T21:51:45;19.35;;;7.05;;
69034;SDS011;56091;55.756;37.412;2023-02-18T21:56:56;18.20;;;7.40;;
69034;SDS011;56091;55.756;37.412;2023-02-18T22:01:58;17.80;;;6.70;;
69034;SDS011;56091;55.756;37.412;2023-02-18T22:07:02;15.70;;;6.20;;
69034;SDS011;56091;55.756;37.412;2023-02-18T22:12:03;19.73;;;7.10;;
69034;SDS011;56091;55.756;37.412;2023-02-18T22:17:05;18.60;;;6.57;;
69034;SDS011;56091;55.756;37.412;2023-02-18T22:22:06;20.33;;;6.55;;
69034;SDS011;56091;55.756;37.412;2023-02-18T22:27:06;16.73;;;6.30;;
69034;SDS011;56091;55.756;37.412;2023-02-18T22:32:07;17.53;;;6.80;;
69034;SDS011;56091;55.756;37.412;2023-02-18T22:37:08;17.30;;;6.30;;
69034;SDS011;56091;55.756;37.412;2023-02-18T22:42:09;11.73;;;4.57;;
69034;SDS011;56091;55.756;37.412;2023-02-18T22:47:10;17.20;;;7.07;;
69034;SDS011;56091;55.756;37.412;2023-02-18T22:52:11;19.10;;;6.55;;
69034;SDS011;56091;55.756;37.412;2023-02-18T22:57:12;16.40;;;6.93;;
69034;SDS011;56091;55.756;37.412;2023-02-18T23:02:14;15.80;;;6.00;;
69034;SDS011;56091;55.756;37.412;2023-02-18T23:07:15;16.57;;;6.43;;
69034;SDS011;56091;55.756;37.412;2023-02-18T23:12:16;16.38;;;6.72;;
69034;SDS011;56091;55.756;37.412;2023-02-18T23:17:17;14.03;;;6.40;;
69034;SDS011;56091;55.756;37.412;2023-02-18T23:22:28;15.65;;;6.30;;
69034;SDS011;56091;55.756;37.412;2023-02-18T23:27:36;15.83;;;5.47;;
69034;SDS011;56091;55.756;37.412;2023-02-18T23:32:37;14.23;;;6.15;;
69034;SDS011;56091;55.756;37.412;2023-02-18T23:37:42;14.77;;;6.03;;
69034;SDS011;56091;55.756;37.412;2023-02-18T23:43:02;16.40;;;6.15;;
69034;SDS011;56091;55.756;37.412;2023-02-18T23:48:03;11.83;;;5.30;;
69034;SDS011;56091;55.756;37.412;2023-02-18T23:53:04;17.77;;;5.87;;
69034;SDS011;56091;55.756;37.412;2023-02-18T23:58:04;18.30;;;6.13;;
